createdAt,value
2018-09-24T00:00:06.980Z,96162.00
2018-09-24T00:00:39.102Z,96164.00
2018-09-24T00:01:11.299Z,96166.00
2018-09-24T00:01:43.632Z,96172.00
2018-09-24T00:02:15.805Z,96174.00
2018-09-24T00:02:47.930Z,96174.00
2018-09-24T00:03:20.115Z,96182.00
2018-09-24T00:03:52.233Z,96185.00
2018-09-24T00:04:24.389Z,96186.00
2018-09-24T00:04:56.471Z,96185.00
2018-09-24T00:05:28.598Z,96186.00
2018-09-24T00:06:01.012Z,96183.00
2018-09-24T00:06:33.285Z,96190.00
2018-09-24T00:07:05.402Z,96188.00
2018-09-24T00:07:37.553Z,96192.00
2018-09-24T00:08:09.809Z,96179.00
2018-09-24T00:08:41.929Z,96178.00
2018-09-24T00:09:14.386Z,96180.00
2018-09-24T00:09:46.472Z,96171.00
2018-09-24T00:10:18.566Z,96177.00
2018-09-24T00:10:50.656Z,96178.00
2018-09-24T00:11:22.747Z,96182.00
2018-09-24T00:11:54.914Z,96187.00
2018-09-24T00:12:27.219Z,96190.00
2018-09-24T00:12:59.321Z,96193.00
2018-09-24T00:13:31.445Z,96187.00
2018-09-24T00:14:03.567Z,96189.00
2018-09-24T00:14:35.849Z,96184.00
2018-09-24T00:15:07.958Z,96182.00
2018-09-24T00:15:40.085Z,96182.00
2018-09-24T00:16:12.214Z,96183.00
2018-09-24T00:16:44.306Z,96181.00
2018-09-24T00:17:16.421Z,96186.00
2018-09-24T00:17:48.646Z,96187.00
2018-09-24T00:18:20.745Z,96186.00
2018-09-24T00:18:52.966Z,96191.00
2018-09-24T00:19:25.052Z,96193.00
2018-09-24T00:19:57.184Z,96192.00
2018-09-24T00:20:29.301Z,96193.00
2018-09-24T00:21:01.393Z,96195.00
2018-09-24T00:21:33.506Z,96200.00
2018-09-24T00:22:05.640Z,96198.00
2018-09-24T00:22:37.745Z,96198.00
2018-09-24T00:23:09.901Z,96198.00
2018-09-24T00:23:42.072Z,96197.00
2018-09-24T00:24:14.170Z,96187.00
2018-09-24T00:24:46.425Z,96199.00
2018-09-24T00:25:18.746Z,96197.00
2018-09-24T00:25:50.818Z,96202.00
2018-09-24T00:26:23.007Z,96202.00
2018-09-24T00:26:55.106Z,96196.00
2018-09-24T00:27:27.346Z,96199.00
2018-09-24T00:27:59.554Z,96199.00
2018-09-24T00:28:31.860Z,96197.00
2018-09-24T00:29:04.017Z,96192.00
2018-09-24T00:29:36.118Z,96194.00
2018-09-24T00:30:08.295Z,96187.00
2018-09-24T00:30:40.501Z,96190.00
2018-09-24T00:31:12.884Z,96186.00
2018-09-24T00:31:44.976Z,96198.00
2018-09-24T00:32:17.128Z,96184.00
2018-09-24T00:32:49.249Z,96181.00
2018-09-24T00:33:21.519Z,96183.00
2018-09-24T00:33:53.610Z,96185.00
2018-09-24T00:34:25.733Z,96182.00
2018-09-24T00:34:57.850Z,96177.00
2018-09-24T00:35:29.968Z,96181.00
2018-09-24T00:36:02.130Z,96178.00
2018-09-24T00:36:34.285Z,96179.00
2018-09-24T00:37:06.460Z,96185.00
2018-09-24T00:37:38.678Z,96178.00
2018-09-24T00:38:10.946Z,96178.00
2018-09-24T00:38:43.043Z,96180.00
2018-09-24T00:39:15.213Z,96183.00
2018-09-24T00:39:47.345Z,96184.00
2018-09-24T00:40:19.450Z,96189.00
2018-09-24T00:40:51.645Z,96189.00
2018-09-24T00:41:23.758Z,96187.00
2018-09-24T00:41:56.049Z,96191.00
2018-09-24T00:42:28.154Z,96194.00
2018-09-24T00:43:00.310Z,96192.00
2018-09-24T00:43:32.600Z,96189.00
2018-09-24T00:44:04.702Z,96190.00
2018-09-24T00:44:36.830Z,96189.00
2018-09-24T00:45:08.957Z,96185.00
2018-09-24T00:45:41.069Z,96187.00
2018-09-24T00:46:13.193Z,96189.00
2018-09-24T00:46:45.438Z,96187.00
2018-09-24T00:47:17.556Z,96193.00
2018-09-24T00:47:49.692Z,96183.00
2018-09-24T00:48:21.799Z,96185.00
2018-09-24T00:48:53.933Z,96197.00
2018-09-24T00:49:26.098Z,96186.00
2018-09-24T00:49:58.321Z,96195.00
2018-09-24T00:50:30.451Z,96186.00
2018-09-24T00:51:02.578Z,96192.00
2018-09-24T00:51:34.711Z,96190.00
2018-09-24T00:52:06.815Z,96195.00
2018-09-24T00:52:39.062Z,96196.00
2018-09-24T00:53:11.159Z,96198.00
2018-09-24T00:53:43.412Z,96203.00
2018-09-24T00:54:15.568Z,96202.00
2018-09-24T00:54:47.676Z,96204.00
2018-09-24T00:55:20.033Z,96207.00
2018-09-24T00:55:52.193Z,96203.00
2018-09-24T00:56:24.362Z,96210.00
2018-09-24T00:56:56.469Z,96212.00
2018-09-24T00:57:28.684Z,96209.00
2018-09-24T00:58:00.809Z,96208.00
2018-09-24T00:58:33.082Z,96211.00
2018-09-24T00:59:05.148Z,96210.00
2018-09-24T00:59:37.320Z,96207.00
2018-09-24T01:00:09.436Z,96207.00
2018-09-24T01:00:41.738Z,96209.00
2018-09-24T01:01:14.013Z,96207.00
2018-09-24T01:01:46.308Z,96205.00
2018-09-24T01:02:18.405Z,96205.00
2018-09-24T01:02:50.502Z,96212.00
2018-09-24T01:03:22.633Z,96217.00
2018-09-24T01:03:54.808Z,96215.00
2018-09-24T01:04:26.960Z,96219.00
2018-09-24T01:04:59.029Z,96215.00
2018-09-24T01:05:31.284Z,96221.00
2018-09-24T01:06:03.401Z,96217.00
2018-09-24T01:06:35.533Z,96228.00
2018-09-24T01:07:07.648Z,96228.00
2018-09-24T01:07:39.763Z,96229.00
2018-09-24T01:08:11.894Z,96236.00
2018-09-24T01:08:43.988Z,96233.00
2018-09-24T01:09:16.088Z,96233.00
2018-09-24T01:09:48.232Z,96241.00
2018-09-24T01:10:20.363Z,96242.00
2018-09-24T01:10:52.538Z,96248.00
2018-09-24T01:11:24.727Z,96249.00
2018-09-24T01:11:56.982Z,96249.00
2018-09-24T01:12:29.109Z,96257.00
2018-09-24T01:13:01.393Z,96254.00
2018-09-24T01:13:33.506Z,96262.00
2018-09-24T01:14:05.623Z,96257.00
2018-09-24T01:14:37.911Z,96259.00
2018-09-24T01:15:10.124Z,96262.00
2018-09-24T01:15:42.247Z,96264.00
2018-09-24T01:16:14.369Z,96260.00
2018-09-24T01:16:46.479Z,96263.00
2018-09-24T01:17:18.561Z,96263.00
2018-09-24T01:17:50.878Z,96260.00
2018-09-24T01:18:23.257Z,96260.00
2018-09-24T01:18:55.545Z,96269.00
2018-09-24T01:19:27.705Z,96261.00
2018-09-24T01:19:59.815Z,96263.00
2018-09-24T01:20:32.079Z,96258.00
2018-09-24T01:21:04.183Z,96266.00
2018-09-24T01:21:36.367Z,96272.00
2018-09-24T01:22:08.485Z,96265.00
2018-09-24T01:22:40.590Z,96262.00
2018-09-24T01:23:12.745Z,96266.00
2018-09-24T01:23:45.104Z,96268.00
2018-09-24T01:24:17.209Z,96275.00
2018-09-24T01:24:49.301Z,96268.00
2018-09-24T01:25:21.550Z,96274.00
2018-09-24T01:25:53.817Z,96272.00
2018-09-24T01:26:25.909Z,96273.00
2018-09-24T01:26:58.035Z,96280.00
2018-09-24T01:27:30.195Z,96272.00
2018-09-24T01:28:02.672Z,96272.00
2018-09-24T01:28:34.745Z,96276.00
2018-09-24T01:29:06.819Z,96275.00
2018-09-24T01:29:39.125Z,96278.00
2018-09-24T01:30:11.258Z,96281.00
2018-09-24T01:30:43.419Z,96277.00
2018-09-24T01:31:15.497Z,96280.00
2018-09-24T01:31:47.664Z,96279.00
2018-09-24T01:32:19.773Z,96283.00
2018-09-24T01:32:52.151Z,96279.00
2018-09-24T01:33:24.382Z,96281.00
2018-09-24T01:33:56.521Z,96286.00
2018-09-24T01:34:28.610Z,96285.00
2018-09-24T01:35:00.777Z,96288.00
2018-09-24T01:35:32.899Z,96282.00
2018-09-24T01:36:05.084Z,96282.00
2018-09-24T01:36:37.218Z,96288.00
2018-09-24T01:37:09.386Z,96285.00
2018-09-24T01:37:41.493Z,96288.00
2018-09-24T01:38:13.629Z,96283.00
2018-09-24T01:38:45.904Z,96281.00
2018-09-24T01:39:18.007Z,96278.00
2018-09-24T01:39:50.218Z,96280.00
2018-09-24T01:40:22.321Z,96289.00
2018-09-24T01:40:54.566Z,96283.00
2018-09-24T01:41:27.092Z,96291.00
2018-09-24T01:41:59.220Z,96287.00
2018-09-24T01:42:31.337Z,96293.00
2018-09-24T01:43:03.441Z,96287.00
2018-09-24T01:43:35.529Z,96293.00
2018-09-24T01:44:07.615Z,96297.00
2018-09-24T01:44:39.866Z,96298.00
2018-09-24T01:45:11.976Z,96298.00
2018-09-24T01:45:44.160Z,96294.00
2018-09-24T01:46:16.312Z,96295.00
2018-09-24T01:46:48.436Z,96295.00
2018-09-24T01:47:20.586Z,96295.00
2018-09-24T01:47:52.762Z,96302.00
2018-09-24T01:48:24.901Z,96295.00
2018-09-24T01:48:56.994Z,96296.00
2018-09-24T01:49:29.244Z,96293.00
2018-09-24T01:50:01.370Z,96299.00
2018-09-24T01:50:33.510Z,96301.00
2018-09-24T01:51:05.687Z,96301.00
2018-09-24T01:51:37.807Z,96307.00
2018-09-24T01:52:09.995Z,96305.00
2018-09-24T01:52:42.089Z,96312.00
2018-09-24T01:53:14.185Z,96300.00
2018-09-24T01:53:46.364Z,96303.00
2018-09-24T01:54:18.474Z,96311.00
2018-09-24T01:54:50.581Z,96307.00
2018-09-24T01:55:22.686Z,96311.00
2018-09-24T01:55:54.864Z,96311.00
2018-09-24T01:56:27.165Z,96309.00
2018-09-24T01:56:59.270Z,96311.00
2018-09-24T01:57:31.429Z,96313.00
2018-09-24T01:58:03.532Z,96314.00
2018-09-24T01:58:35.659Z,96317.00
2018-09-24T01:59:07.813Z,96323.00
2018-09-24T01:59:39.990Z,96319.00
2018-09-24T02:00:12.093Z,96320.00
2018-09-24T02:00:44.238Z,96318.00
2018-09-24T02:01:16.437Z,96317.00
2018-09-24T02:01:48.550Z,96325.00
2018-09-24T02:02:20.654Z,96319.00
2018-09-24T02:02:52.763Z,96324.00
2018-09-24T02:03:24.896Z,96326.00
2018-09-24T02:03:57.155Z,96324.00
2018-09-24T02:04:29.265Z,96324.00
2018-09-24T02:05:01.438Z,96322.00
2018-09-24T02:05:33.616Z,96330.00
2018-09-24T02:06:05.804Z,96330.00
2018-09-24T02:06:38.122Z,96326.00
2018-09-24T02:07:10.378Z,96332.00
2018-09-24T02:07:42.674Z,96336.00
2018-09-24T02:08:14.765Z,96337.00
2018-09-24T02:08:46.946Z,96335.00
2018-09-24T02:09:19.077Z,96341.00
2018-09-24T02:09:51.197Z,96340.00
2018-09-24T02:10:23.471Z,96343.00
2018-09-24T02:10:55.575Z,96345.00
2018-09-24T02:11:27.677Z,96339.00
2018-09-24T02:11:59.827Z,96344.00
2018-09-24T02:12:31.950Z,96342.00
2018-09-24T02:13:04.208Z,96341.00
2018-09-24T02:13:36.329Z,96337.00
2018-09-24T02:14:08.458Z,96342.00
2018-09-24T02:14:40.552Z,96340.00
2018-09-24T02:15:12.649Z,96342.00
2018-09-24T02:15:44.794Z,96343.00
2018-09-24T02:16:16.901Z,96348.00
2018-09-24T02:16:49.050Z,96348.00
2018-09-24T02:17:21.172Z,96348.00
2018-09-24T02:17:53.331Z,96352.00
2018-09-24T02:18:25.470Z,96351.00
2018-09-24T02:18:57.606Z,96352.00
2018-09-24T02:19:29.822Z,96357.00
2018-09-24T02:20:01.959Z,96358.00
2018-09-24T02:20:34.090Z,96358.00
2018-09-24T02:21:06.320Z,96361.00
2018-09-24T02:21:38.436Z,96361.00
2018-09-24T02:22:10.572Z,96354.00
2018-09-24T02:22:42.685Z,96356.00
2018-09-24T02:23:14.936Z,96357.00
2018-09-24T02:23:47.232Z,96359.00
2018-09-24T02:24:19.319Z,96355.00
2018-09-24T02:24:51.472Z,96357.00
2018-09-24T02:25:23.859Z,96362.00
2018-09-24T02:25:55.977Z,96361.00
2018-09-24T02:26:28.165Z,96360.00
2018-09-24T02:27:00.265Z,96364.00
2018-09-24T02:27:32.415Z,96363.00
2018-09-24T02:28:04.629Z,96365.00
2018-09-24T02:28:36.724Z,96367.00
2018-09-24T02:29:08.985Z,96363.00
2018-09-24T02:29:41.154Z,96368.00
2018-09-24T02:30:13.283Z,96369.00
2018-09-24T02:30:45.606Z,96369.00
2018-09-24T02:31:17.687Z,96375.00
2018-09-24T02:31:49.781Z,96372.00
2018-09-24T02:32:21.928Z,96367.00
2018-09-24T02:32:53.996Z,96370.00
2018-09-24T02:33:26.240Z,96369.00
2018-09-24T02:33:58.358Z,96373.00
2018-09-24T02:34:30.481Z,96367.00
2018-09-24T02:35:02.676Z,96367.00
2018-09-24T02:35:34.784Z,96365.00
2018-09-24T02:36:06.932Z,96371.00
2018-09-24T02:36:39.213Z,96372.00
2018-09-24T02:37:11.420Z,96372.00
2018-09-24T02:37:43.779Z,96369.00
2018-09-24T02:38:15.874Z,96375.00
2018-09-24T02:38:47.989Z,96374.00
2018-09-24T02:39:20.281Z,96379.00
2018-09-24T02:39:52.379Z,96373.00
2018-09-24T02:40:24.587Z,96376.00
2018-09-24T02:40:56.862Z,96376.00
2018-09-24T02:41:28.989Z,96376.00
2018-09-24T02:42:01.353Z,96375.00
2018-09-24T02:42:33.541Z,96380.00
2018-09-24T02:43:05.838Z,96388.00
2018-09-24T02:43:37.981Z,96396.00
2018-09-24T02:44:10.480Z,96392.00
2018-09-24T02:44:42.610Z,96391.00
2018-09-24T02:45:14.735Z,96392.00
2018-09-24T02:45:46.862Z,96388.00
2018-09-24T02:46:18.949Z,96392.00
2018-09-24T02:46:51.068Z,96393.00
2018-09-24T02:47:23.165Z,96386.00
2018-09-24T02:47:55.305Z,96396.00
2018-09-24T02:48:27.510Z,96396.00
2018-09-24T02:48:59.732Z,96396.00
2018-09-24T02:49:31.831Z,96391.00
2018-09-24T02:50:03.947Z,96400.00
2018-09-24T02:50:36.037Z,96403.00
2018-09-24T02:51:08.155Z,96401.00
2018-09-24T02:51:40.259Z,96408.00
2018-09-24T02:52:12.419Z,96406.00
2018-09-24T02:52:44.529Z,96405.00
2018-09-24T02:53:16.665Z,96410.00
2018-09-24T02:53:48.819Z,96408.00
2018-09-24T02:54:20.907Z,96411.00
2018-09-24T02:54:53.008Z,96413.00
2018-09-24T02:55:25.131Z,96411.00
2018-09-24T02:55:57.230Z,96414.00
2018-09-24T02:56:29.342Z,96414.00
2018-09-24T02:57:01.443Z,96419.00
2018-09-24T02:57:33.546Z,96415.00
2018-09-24T02:58:05.764Z,96417.00
2018-09-24T02:58:37.901Z,96419.00
2018-09-24T02:59:10.022Z,96419.00
2018-09-24T02:59:42.297Z,96414.00
2018-09-24T03:00:14.433Z,96421.00
2018-09-24T03:00:46.565Z,96420.00
2018-09-24T03:01:18.757Z,96421.00
2018-09-24T03:01:50.859Z,96422.00
2018-09-24T03:02:23.002Z,96419.00
2018-09-24T03:02:55.171Z,96421.00
2018-09-24T03:03:27.511Z,96420.00
2018-09-24T03:03:59.836Z,96426.00
2018-09-24T03:04:31.961Z,96427.00
2018-09-24T03:05:04.096Z,96425.00
2018-09-24T03:05:36.199Z,96424.00
2018-09-24T03:06:08.291Z,96427.00
2018-09-24T03:06:40.386Z,96430.00
2018-09-24T03:07:12.617Z,96430.00
2018-09-24T03:07:44.853Z,96428.00
2018-09-24T03:08:17.030Z,96433.00
2018-09-24T03:08:49.149Z,96433.00
2018-09-24T03:09:21.310Z,96428.00
2018-09-24T03:09:53.445Z,96433.00
2018-09-24T03:10:25.723Z,96438.00
2018-09-24T03:10:57.826Z,96437.00
2018-09-24T03:11:29.969Z,96445.00
2018-09-24T03:12:02.166Z,96436.00
2018-09-24T03:12:34.299Z,96445.00
2018-09-24T03:13:06.484Z,96450.00
2018-09-24T03:13:38.865Z,96441.00
2018-09-24T03:14:11.023Z,96450.00
2018-09-24T03:14:43.162Z,96443.00
2018-09-24T03:15:15.281Z,96457.00
2018-09-24T03:15:47.610Z,96452.00
2018-09-24T03:16:19.683Z,96452.00
2018-09-24T03:16:51.867Z,96454.00
2018-09-24T03:17:24.000Z,96456.00
2018-09-24T03:17:56.127Z,96454.00
2018-09-24T03:18:28.226Z,96454.00
2018-09-24T03:19:00.382Z,96460.00
2018-09-24T03:19:32.534Z,96456.00
2018-09-24T03:20:04.706Z,96455.00
2018-09-24T03:20:37.123Z,96458.00
2018-09-24T03:21:09.270Z,96458.00
2018-09-24T03:21:41.571Z,96458.00
2018-09-24T03:22:13.670Z,96464.00
2018-09-24T03:22:45.814Z,96461.00
2018-09-24T03:23:17.933Z,96462.00
2018-09-24T03:23:50.072Z,96462.00
2018-09-24T03:24:22.150Z,96467.00
2018-09-24T03:24:54.252Z,96464.00
2018-09-24T03:25:26.384Z,96462.00
2018-09-24T03:25:58.628Z,96463.00
2018-09-24T03:26:30.742Z,96466.00
2018-09-24T03:27:02.849Z,96464.00
2018-09-24T03:27:35.248Z,96466.00
2018-09-24T03:28:07.620Z,96463.00
2018-09-24T03:28:39.727Z,96464.00
2018-09-24T03:29:11.827Z,96466.00
2018-09-24T03:29:44.043Z,96460.00
2018-09-24T03:30:16.180Z,96464.00
2018-09-24T03:30:48.321Z,96461.00
2018-09-24T03:31:20.715Z,96463.00
2018-09-24T03:31:52.863Z,96462.00
2018-09-24T03:32:25.140Z,96460.00
2018-09-24T03:32:57.219Z,96462.00
2018-09-24T03:33:29.343Z,96458.00
2018-09-24T03:34:01.458Z,96455.00
2018-09-24T03:34:33.682Z,96462.00
2018-09-24T03:35:05.933Z,96464.00
2018-09-24T03:35:38.031Z,96464.00
2018-09-24T03:36:10.136Z,96465.00
2018-09-24T03:36:42.254Z,96471.00
2018-09-24T03:37:14.382Z,96466.00
2018-09-24T03:37:46.548Z,96466.00
2018-09-24T03:38:18.784Z,96466.00
2018-09-24T03:38:51.010Z,96468.00
2018-09-24T03:39:23.121Z,96467.00
2018-09-24T03:39:55.383Z,96465.00
2018-09-24T03:40:27.505Z,96472.00
2018-09-24T03:40:59.622Z,96466.00
2018-09-24T03:41:31.721Z,96467.00
2018-09-24T03:42:03.957Z,96469.00
2018-09-24T03:42:36.197Z,96470.00
2018-09-24T03:43:08.301Z,96466.00
2018-09-24T03:43:40.445Z,96470.00
2018-09-24T03:44:12.713Z,96470.00
2018-09-24T03:44:45.074Z,96472.00
2018-09-24T03:45:17.230Z,96472.00
2018-09-24T03:45:49.321Z,96473.00
2018-09-24T03:46:21.510Z,96472.00
2018-09-24T03:46:53.629Z,96477.00
2018-09-24T03:47:25.812Z,96477.00
2018-09-24T03:47:57.891Z,96483.00
2018-09-24T03:48:30.045Z,96474.00
2018-09-24T03:49:02.144Z,96481.00
2018-09-24T03:49:34.218Z,96481.00
2018-09-24T03:50:06.338Z,96485.00
2018-09-24T03:50:38.618Z,96491.00
2018-09-24T03:51:10.777Z,96487.00
2018-09-24T03:51:42.889Z,96487.00
2018-09-24T03:52:15.027Z,96483.00
2018-09-24T03:52:47.121Z,96493.00
2018-09-24T03:53:19.287Z,96485.00
2018-09-24T03:53:51.453Z,96489.00
2018-09-24T03:54:23.587Z,96489.00
2018-09-24T03:54:55.691Z,96486.00
2018-09-24T03:55:27.810Z,96487.00
2018-09-24T03:55:59.998Z,96484.00
2018-09-24T03:56:32.186Z,96489.00
2018-09-24T03:57:04.284Z,96491.00
2018-09-24T03:57:36.563Z,96487.00
2018-09-24T03:58:08.669Z,96489.00
2018-09-24T03:58:40.804Z,96494.00
2018-09-24T03:59:12.909Z,96487.00
2018-09-24T03:59:45.117Z,96496.00
2018-09-24T04:00:17.205Z,96488.00
2018-09-24T04:00:49.294Z,96492.00
2018-09-24T04:01:21.587Z,96490.00
2018-09-24T04:01:53.705Z,96484.00
2018-09-24T04:02:25.810Z,96486.00
2018-09-24T04:02:57.951Z,96489.00
2018-09-24T04:03:30.243Z,96490.00
2018-09-24T04:04:02.334Z,96490.00
2018-09-24T04:04:34.405Z,96486.00
2018-09-24T04:05:06.594Z,96491.00
2018-09-24T04:05:39.015Z,96494.00
2018-09-24T04:06:11.272Z,96492.00
2018-09-24T04:06:43.418Z,96492.00
2018-09-24T04:07:15.573Z,96490.00
2018-09-24T04:07:47.753Z,96493.00
2018-09-24T04:08:19.849Z,96496.00
2018-09-24T04:08:52.039Z,96495.00
2018-09-24T04:09:24.165Z,96498.00
2018-09-24T04:09:56.581Z,96503.00
2018-09-24T04:10:28.774Z,96501.00
2018-09-24T04:11:00.960Z,96506.00
2018-09-24T04:11:33.004Z,96514.00
2018-09-24T04:12:05.097Z,96518.00
2018-09-24T04:12:37.189Z,96528.00
2018-09-24T04:13:09.355Z,96535.00
2018-09-24T04:13:41.461Z,96526.00
2018-09-24T04:14:13.602Z,96529.00
2018-09-24T04:14:45.763Z,96531.00
2018-09-24T04:15:17.874Z,96539.00
2018-09-24T04:15:49.963Z,96536.00
2018-09-24T04:16:22.113Z,96539.00
2018-09-24T04:16:54.236Z,96541.00
2018-09-24T04:17:26.340Z,96540.00
2018-09-24T04:17:58.444Z,96543.00
2018-09-24T04:18:30.570Z,96542.00
2018-09-24T04:19:02.694Z,96541.00
2018-09-24T04:19:34.889Z,96545.00
2018-09-24T04:20:06.949Z,96548.00
2018-09-24T04:20:39.291Z,96545.00
2018-09-24T04:21:11.547Z,96551.00
2018-09-24T04:21:43.870Z,96550.00
2018-09-24T04:22:16.131Z,96556.00
2018-09-24T04:22:48.315Z,96555.00
2018-09-24T04:23:20.514Z,96558.00
2018-09-24T04:23:52.675Z,96558.00
2018-09-24T04:24:24.771Z,96560.00
2018-09-24T04:24:56.856Z,96566.00
2018-09-24T04:25:29.219Z,96562.00
2018-09-24T04:26:01.669Z,96564.00
2018-09-24T04:26:33.803Z,96568.00
2018-09-24T04:27:05.921Z,96567.00
2018-09-24T04:27:38.420Z,96567.00
2018-09-24T04:28:10.675Z,96569.00
2018-09-24T04:28:42.822Z,96567.00
2018-09-24T04:29:14.929Z,96568.00
2018-09-24T04:29:47.338Z,96570.00
2018-09-24T04:30:19.501Z,96571.00
2018-09-24T04:30:51.792Z,96570.00
2018-09-24T04:31:24.147Z,96577.00
2018-09-24T04:31:56.275Z,96574.00
2018-09-24T04:32:28.374Z,96575.00
2018-09-24T04:33:00.610Z,96576.00
2018-09-24T04:33:32.778Z,96580.00
2018-09-24T04:34:04.934Z,96586.00
2018-09-24T04:34:37.093Z,96589.00
2018-09-24T04:35:09.238Z,96589.00
2018-09-24T04:35:41.581Z,96590.00
2018-09-24T04:36:13.704Z,96586.00
2018-09-24T04:36:45.807Z,96590.00
2018-09-24T04:37:18.077Z,96596.00
2018-09-24T04:37:50.262Z,96591.00
2018-09-24T04:38:22.571Z,96588.00
2018-09-24T04:38:54.838Z,96593.00
2018-09-24T04:39:27.051Z,96589.00
2018-09-24T04:39:59.145Z,96592.00
2018-09-24T04:40:31.294Z,96595.00
2018-09-24T04:41:03.634Z,96586.00
2018-09-24T04:41:35.726Z,96592.00
2018-09-24T04:42:07.877Z,96587.00
2018-09-24T04:42:40.014Z,96592.00
2018-09-24T04:43:12.214Z,96595.00
2018-09-24T04:43:44.369Z,96593.00
2018-09-24T04:44:16.478Z,96599.00
2018-09-24T04:44:48.599Z,96597.00
2018-09-24T04:45:20.712Z,96596.00
2018-09-24T04:45:52.919Z,96598.00
2018-09-24T04:46:25.001Z,96602.00
2018-09-24T04:46:57.135Z,96600.00
2018-09-24T04:47:29.428Z,96603.00
2018-09-24T04:48:01.635Z,96602.00
2018-09-24T04:48:33.707Z,96605.00
2018-09-24T04:49:05.846Z,96609.00
2018-09-24T04:49:37.962Z,96612.00
2018-09-24T04:50:10.069Z,96611.00
2018-09-24T04:50:42.305Z,96620.00
2018-09-24T04:51:14.461Z,96616.00
2018-09-24T04:51:46.643Z,96611.00
2018-09-24T04:52:18.787Z,96616.00
2018-09-24T04:52:50.897Z,96620.00
2018-09-24T04:53:23.078Z,96618.00
2018-09-24T04:53:55.202Z,96620.00
2018-09-24T04:54:27.317Z,96620.00
2018-09-24T04:54:59.391Z,96625.00
2018-09-24T04:55:31.485Z,96626.00
2018-09-24T04:56:03.712Z,96624.00
2018-09-24T04:56:35.799Z,96622.00
2018-09-24T04:57:07.955Z,96624.00
2018-09-24T04:57:40.066Z,96628.00
2018-09-24T04:58:12.210Z,96624.00
2018-09-24T04:58:44.375Z,96629.00
2018-09-24T04:59:16.563Z,96628.00
2018-09-24T04:59:48.702Z,96632.00
2018-09-24T05:00:20.819Z,96631.00
2018-09-24T05:00:52.931Z,96634.00
2018-09-24T05:01:25.085Z,96637.00
2018-09-24T05:01:57.435Z,96635.00
2018-09-24T05:02:29.525Z,96637.00
2018-09-24T05:03:01.658Z,96635.00
2018-09-24T05:03:33.807Z,96640.00
2018-09-24T05:04:05.906Z,96644.00
2018-09-24T05:04:38.005Z,96641.00
2018-09-24T05:05:10.148Z,96646.00
2018-09-24T05:05:42.266Z,96643.00
2018-09-24T05:06:14.530Z,96641.00
2018-09-24T05:06:46.716Z,96647.00
2018-09-24T05:07:18.947Z,96645.00
2018-09-24T05:07:51.038Z,96644.00
2018-09-24T05:08:23.136Z,96647.00
2018-09-24T05:08:55.289Z,96645.00
2018-09-24T05:09:27.497Z,96645.00
2018-09-24T05:09:59.616Z,96647.00
2018-09-24T05:10:31.748Z,96646.00
2018-09-24T05:11:03.877Z,96645.00
2018-09-24T05:11:36.070Z,96648.00
2018-09-24T05:12:08.263Z,96650.00
2018-09-24T05:12:40.340Z,96654.00
2018-09-24T05:13:12.577Z,96654.00
2018-09-24T05:13:44.680Z,96656.00
2018-09-24T05:14:16.842Z,96656.00
2018-09-24T05:14:48.932Z,96659.00
2018-09-24T05:15:21.049Z,96660.00
2018-09-24T05:15:53.261Z,96661.00
2018-09-24T05:16:25.465Z,96664.00
2018-09-24T05:16:57.569Z,96666.00
2018-09-24T05:17:29.702Z,96661.00
2018-09-24T05:18:01.886Z,96668.00
2018-09-24T05:18:34.026Z,96666.00
2018-09-24T05:19:06.142Z,96663.00
2018-09-24T05:19:38.291Z,96665.00
2018-09-24T05:20:10.690Z,96664.00
2018-09-24T05:20:42.769Z,96665.00
2018-09-24T05:21:14.946Z,96665.00
2018-09-24T05:21:47.097Z,96667.00
2018-09-24T05:22:19.225Z,96671.00
2018-09-24T05:22:51.388Z,96669.00
2018-09-24T05:23:23.445Z,96673.00
2018-09-24T05:23:55.546Z,96672.00
2018-09-24T05:24:27.662Z,96673.00
2018-09-24T05:24:59.826Z,96675.00
2018-09-24T05:25:31.934Z,96678.00
2018-09-24T05:26:04.117Z,96684.00
2018-09-24T05:26:36.209Z,96682.00
2018-09-24T05:27:08.579Z,96689.00
2018-09-24T05:27:40.673Z,96698.00
2018-09-24T05:28:12.790Z,96692.00
2018-09-24T05:28:44.931Z,96693.00
2018-09-24T05:29:17.064Z,96696.00
2018-09-24T05:29:49.141Z,96694.00
2018-09-24T05:30:21.242Z,96696.00
2018-09-24T05:30:53.547Z,96698.00
2018-09-24T05:31:25.795Z,96701.00
2018-09-24T05:31:58.030Z,96699.00
2018-09-24T05:32:30.348Z,96701.00
2018-09-24T05:33:02.402Z,96701.00
2018-09-24T05:33:34.546Z,96703.00
2018-09-24T05:34:06.966Z,96703.00
2018-09-24T05:34:39.098Z,96705.00
2018-09-24T05:35:11.171Z,96705.00
2018-09-24T05:35:43.482Z,96706.00
2018-09-24T05:36:15.554Z,96710.00
2018-09-24T05:36:47.677Z,96707.00
2018-09-24T05:37:19.758Z,96714.00
2018-09-24T05:37:51.885Z,96707.00
2018-09-24T05:38:24.015Z,96707.00
2018-09-24T05:38:56.114Z,96715.00
2018-09-24T05:39:28.263Z,96711.00
2018-09-24T05:40:00.399Z,96710.00
2018-09-24T05:40:32.626Z,96715.00
2018-09-24T05:41:04.762Z,96710.00
2018-09-24T05:41:36.903Z,96711.00
2018-09-24T05:42:08.999Z,96715.00
2018-09-24T05:42:41.144Z,96714.00
2018-09-24T05:43:13.229Z,96712.00
2018-09-24T05:43:45.346Z,96716.00
2018-09-24T05:44:17.528Z,96715.00
2018-09-24T05:44:49.829Z,96715.00
2018-09-24T05:45:21.974Z,96716.00
2018-09-24T05:45:54.119Z,96718.00
2018-09-24T05:46:26.206Z,96719.00
2018-09-24T05:46:58.336Z,96719.00
2018-09-24T05:47:30.544Z,96723.00
2018-09-24T05:48:02.684Z,96723.00
2018-09-24T05:48:34.899Z,96727.00
2018-09-24T05:49:07.026Z,96729.00
2018-09-24T05:49:39.414Z,96733.00
2018-09-24T05:50:11.561Z,96733.00
2018-09-24T05:50:43.714Z,96734.00
2018-09-24T05:51:15.833Z,96737.00
2018-09-24T05:51:47.964Z,96730.00
2018-09-24T05:52:20.089Z,96734.00
2018-09-24T05:52:52.170Z,96739.00
2018-09-24T05:53:24.292Z,96733.00
2018-09-24T05:53:56.394Z,96734.00
2018-09-24T05:54:28.503Z,96740.00
2018-09-24T05:55:00.683Z,96742.00
2018-09-24T05:55:32.939Z,96743.00
2018-09-24T05:56:05.027Z,96742.00
2018-09-24T05:56:37.187Z,96746.00
2018-09-24T05:57:09.404Z,96746.00
2018-09-24T05:57:41.527Z,96744.00
2018-09-24T05:58:13.604Z,96749.00
2018-09-24T05:58:45.736Z,96751.00
2018-09-24T05:59:17.872Z,96749.00
2018-09-24T05:59:49.986Z,96751.00
2018-09-24T06:00:22.097Z,96758.00
2018-09-24T06:00:54.226Z,96760.00
2018-09-24T06:01:26.632Z,96755.00
2018-09-24T06:01:58.824Z,96760.00
2018-09-24T06:02:31.040Z,96761.00
2018-09-24T06:03:03.166Z,96760.00
2018-09-24T06:03:35.282Z,96759.00
2018-09-24T06:04:07.467Z,96761.00
2018-09-24T06:04:39.634Z,96755.00
2018-09-24T06:05:11.700Z,96764.00
2018-09-24T06:05:43.777Z,96758.00
2018-09-24T06:06:15.874Z,96762.00
2018-09-24T06:06:48.019Z,96761.00
2018-09-24T06:07:20.119Z,96765.00
2018-09-24T06:07:52.235Z,96764.00
2018-09-24T06:08:24.361Z,96762.00
2018-09-24T06:08:56.530Z,96765.00
2018-09-24T06:09:28.761Z,96768.00
2018-09-24T06:10:00.910Z,96766.00
2018-09-24T06:10:33.120Z,96775.00
2018-09-24T06:11:05.286Z,96771.00
2018-09-24T06:11:37.402Z,96773.00
2018-09-24T06:12:09.510Z,96777.00
2018-09-24T06:12:41.653Z,96780.00
2018-09-24T06:13:13.825Z,96779.00
2018-09-24T06:13:46.077Z,96779.00
2018-09-24T06:14:18.143Z,96779.00
2018-09-24T06:14:50.245Z,96781.00
2018-09-24T06:15:22.319Z,96786.00
2018-09-24T06:15:54.503Z,96787.00
2018-09-24T06:16:26.672Z,96786.00
2018-09-24T06:16:58.858Z,96788.00
2018-09-24T06:17:31.149Z,96788.00